Time;durP1;ratioP1;P1;durP2;ratioP2;P2;SDS_P1;SDS_P2;PMS_P1;PMS_P2;Temp;Humidity;BMP_temperature;BMP_pressure;BME280_temperature;BME280_humidity;BME280_pressure;Samples;Min_cycle;Max_cycle;Signal;HPM_P1;HPM_P2
2020/12/29 00:04:55;;;;;;;11.47;5.20;;;;;;;5.64;69.34;95770.48;250117;1148;22925;-77
2020/12/29 00:09:57;;;;;;;9.73;4.73;;;;;;;5.57;69.69;95771.02;250246;1148;22954;-79
2020/12/29 00:14:59;;;;;;;10.15;5.45;;;;;;;5.54;70.13;95761.05;250333;1148;23388;-79
2020/12/29 00:20:02;;;;;;;10.20;5.30;;;;;;;5.50;70.42;95752.20;250251;1148;22951;-79
2020/12/29 00:25:04;;;;;;;9.93;5.20;;;;;;;5.43;70.62;95765.23;250097;1148;22936;-76
2020/12/29 00:30:07;;;;;;;12.03;6.50;;;;;;;5.36;71.47;95763.11;250173;1151;23043;-79
2020/12/29 00:35:09;;;;;;;13.13;6.87;;;;;;;5.35;72.40;95755.48;250045;1148;22937;-79
2020/12/29 00:40:11;;;;;;;17.80;8.55;;;;;;;5.31;72.79;95758.00;250093;1148;22953;-81
2020/12/29 00:45:14;;;;;;;19.70;9.40;;;;;;;5.29;73.55;95749.61;250211;1148;23343;-78
2020/12/29 00:50:16;;;;;;;13.30;7.20;;;;;;;5.28;74.09;95750.70;249971;1148;23011;-76
2020/12/29 00:55:18;;;;;;;14.00;6.15;;;;;;;5.21;74.13;95740.61;250076;1148;22932;-78
2020/12/29 01:00:23;;;;;;;12.87;7.60;;;;;;;5.17;75.01;95729.09;250164;1148;23032;-78
2020/12/29 01:05:37;;;;;;;13.60;6.87;;;;;;;5.16;75.75;95724.89;250212;1148;22928;-79
2020/12/29 01:10:41;;;;;;;12.03;6.40;;;;;;;5.19;76.34;95734.08;250000;1148;22935;-78
2020/12/29 01:16:06;;;;;;;26.25;12.45;;;;;;;5.12;75.80;95721.34;250013;1148;22938;-77
2020/12/29 01:21:11;;;;;;;11.97;6.13;;;;;;;5.08;76.63;95731.84;249956;1148;23091;-77
2020/12/29 01:26:24;;;;;;;17.07;8.40;;;;;;;5.07;76.69;95724.98;250504;1148;22935;-77
2020/12/29 01:31:31;;;;;;;13.33;7.77;;;;;;;5.12;77.27;95708.06;250349;1148;23088;-79
2020/12/29 01:36:34;;;;;;;15.55;7.20;;;;;;;5.13;76.97;95686.54;250210;1148;22972;-79
2020/12/29 01:41:36;;;;;;;16.00;8.73;;;;;;;5.10;77.05;95697.02;249990;1148;23063;-77
2020/12/29 01:46:40;;;;;;;14.90;7.97;;;;;;;5.07;77.45;95695.03;250154;1148;22929;-78
2020/12/29 01:51:43;;;;;;;15.67;8.50;;;;;;;5.04;77.89;95682.42;250108;1148;22960;-79
2020/12/29 01:56:45;;;;;;;22.65;11.25;;;;;;;5.03;77.75;95688.83;250016;1149;23000;-79
2020/12/29 02:01:49;;;;;;;18.73;11.43;;;;;;;5.02;78.59;95679.30;250063;1148;22954;-77
2020/12/29 02:06:52;;;;;;;15.65;9.35;;;;;;;5.06;78.62;95675.66;250301;1148;23001;-76
2020/12/29 02:11:53;;;;;;;19.30;10.80;;;;;;;5.10;78.83;95678.45;250028;1148;22960;-78
2020/12/29 02:16:55;;;;;;;21.80;11.93;;;;;;;5.13;78.85;95669.83;250128;1148;25225;-79
2020/12/29 02:21:58;;;;;;;21.03;12.30;;;;;;;5.18;79.37;95660.90;250030;1148;23004;-78
2020/12/29 02:27:03;;;;;;;23.40;11.37;;;;;;;5.21;79.79;95655.69;250059;1148;22949;-78
2020/12/29 02:32:06;;;;;;;22.93;11.73;;;;;;;5.23;79.73;95634.92;250265;1147;26404;-78
2020/12/29 02:37:09;;;;;;;21.80;10.57;;;;;;;5.23;80.01;95632.27;249992;1150;26124;-77
2020/12/29 02:42:12;;;;;;;26.13;11.97;;;;;;;5.24;80.09;95644.41;249974;1148;23035;-82
2020/12/29 02:47:14;;;;;;;27.73;11.23;;;;;;;5.24;80.09;95633.80;250158;1148;22931;-78
2020/12/29 02:52:17;;;;;;;20.13;11.30;;;;;;;5.23;79.91;95628.81;250227;1148;22929;-78
2020/12/29 02:57:20;;;;;;;26.57;13.50;;;;;;;5.18;80.00;95623.75;250074;1148;22919;-79
2020/12/29 03:02:22;;;;;;;23.05;12.85;;;;;;;5.12;79.88;95617.85;249928;1148;25264;-86
2020/12/29 03:07:24;;;;;;;24.85;12.80;;;;;;;5.08;80.44;95623.06;250077;1148;22929;-78
2020/12/29 03:12:27;;;;;;;24.57;13.37;;;;;;;5.10;80.22;95618.18;250244;1148;25446;-79
2020/12/29 03:17:30;;;;;;;23.07;13.67;;;;;;;5.13;81.15;95614.10;250155;1148;23033;-78
2020/12/29 03:22:33;;;;;;;23.77;12.17;;;;;;;5.16;80.43;95621.39;249938;1148;23080;-77
2020/12/29 03:27:35;;;;;;;29.93;13.70;;;;;;;5.15;80.83;95606.59;249827;1150;22927;-76
2020/12/29 03:32:37;;;;;;;28.50;13.97;;;;;;;5.17;81.24;95609.69;249909;1148;22931;-79
2020/12/29 03:37:40;;;;;;;25.73;14.00;;;;;;;5.14;80.83;95602.39;250224;1148;22929;-79
2020/12/29 03:42:42;;;;;;;25.77;12.43;;;;;;;5.09;81.26;95605.25;250140;1148;26398;-76
2020/12/29 03:47:45;;;;;;;20.77;10.53;;;;;;;5.01;80.61;95604.27;249904;1148;23031;-78
2020/12/29 03:52:47;;;;;;;26.40;11.83;;;;;;;4.92;80.85;95601.68;249996;1148;23016;-76
2020/12/29 03:57:49;;;;;;;20.33;10.67;;;;;;;4.86;80.85;95600.35;249948;1148;23060;-78
2020/12/29 04:02:51;;;;;;;20.75;11.35;;;;;;;4.80;81.00;95614.94;249905;1148;23025;-78
2020/12/29 04:07:53;;;;;;;18.80;9.67;;;;;;;4.74;81.00;95617.02;249916;1148;22915;-81
2020/12/29 04:12:56;;;;;;;18.23;11.20;;;;;;;4.67;81.02;95606.16;249971;1148;22945;-83
2020/12/29 04:17:58;;;;;;;20.90;10.80;;;;;;;4.66;81.31;95604.63;250077;1148;25979;-78
2020/12/29 04:23:01;;;;;;;20.90;12.10;;;;;;;4.72;81.90;95616.56;250208;1148;22922;-78
2020/12/29 04:28:04;;;;;;;20.30;12.30;;;;;;;4.71;81.70;95617.66;250044;1148;22974;-78
2020/12/29 04:33:06;;;;;;;21.63;11.50;;;;;;;4.69;81.95;95624.41;249913;1148;22950;-77
2020/12/29 04:38:08;;;;;;;24.43;12.87;;;;;;;4.60;81.61;95625.27;249806;1148;26373;-78
2020/12/29 04:43:10;;;;;;;20.63;12.43;;;;;;;4.59;82.24;95630.90;249860;1148;22922;-77
2020/12/29 04:48:12;;;;;;;18.17;11.40;;;;;;;4.66;82.01;95635.66;249837;1148;24408;-79
2020/12/29 04:53:18;;;;;;;19.90;11.90;;;;;;;4.62;82.30;95640.84;249894;1148;22976;-78
2020/12/29 04:58:22;;;;;;;24.30;11.07;;;;;;;4.62;82.19;95659.41;249853;1148;22956;-78
2020/12/29 05:03:27;;;;;;;12.70;6.00;;;;;;;4.67;82.71;95669.02;249986;1148;22956;-79
2020/12/29 05:08:30;;;;;;;3.85;1.50;;;;;;;4.75;83.55;95689.39;249943;1148;22941;-78
2020/12/29 05:13:32;;;;;;;1.67;1.10;;;;;;;4.78;83.74;95705.44;249946;1148;22931;-78
2020/12/29 05:18:35;;;;;;;4.33;1.73;;;;;;;4.78;84.06;95717.91;249945;1148;22932;-80
2020/12/29 05:23:37;;;;;;;4.37;1.60;;;;;;;4.76;84.59;95733.37;250504;1151;22978;-78
2020/12/29 05:28:39;;;;;;;4.00;1.73;;;;;;;4.71;84.49;95736.98;250095;1148;22946;-77
2020/12/29 05:33:42;;;;;;;2.17;1.30;;;;;;;4.62;84.51;95742.36;249909;1148;26418;-78
2020/12/29 05:38:44;;;;;;;1.33;0.87;;;;;;;4.44;84.88;95754.96;250137;1148;22925;-79
2020/12/29 05:44:00;;;;;;;2.40;1.37;;;;;;;4.27;84.18;95766.45;249970;1148;22928;-76
2020/12/29 05:49:03;;;;;;;2.83;1.27;;;;;;;4.08;84.82;95766.85;249999;1147;27575;-78
2020/12/29 05:54:06;;;;;;;1.80;1.00;;;;;;;3.93;84.87;95786.73;249934;1148;23699;-78
2020/12/29 05:59:11;;;;;;;2.20;1.20;;;;;;;3.77;84.49;95799.70;250007;1148;22958;-78
2020/12/29 06:04:21;;;;;;;2.10;1.00;;;;;;;3.71;84.84;95816.86;249998;1148;22925;-78
2020/12/29 06:09:25;;;;;;;1.10;0.90;;;;;;;3.62;85.40;95831.21;250008;1148;22927;-78
2020/12/29 06:14:27;;;;;;;3.55;1.30;;;;;;;3.48;84.76;95850.69;249948;1151;22935;-78
2020/12/29 06:19:31;;;;;;;2.37;1.00;;;;;;;3.33;84.82;95861.75;250018;1148;22894;-76
2020/12/29 06:24:38;;;;;;;3.17;1.20;;;;;;;3.18;84.70;95874.38;250472;1148;22947;-77
2020/12/29 06:29:45;;;;;;;2.73;1.43;;;;;;;3.05;84.76;95894.59;250028;1148;25986;-78
2020/12/29 06:34:48;;;;;;;3.13;1.60;;;;;;;2.98;85.22;95918.08;250215;1148;23079;-77
2020/12/29 06:39:59;;;;;;;4.15;1.85;;;;;;;2.88;85.39;95945.59;250145;1148;22958;-78
2020/12/29 06:45:06;;;;;;;3.80;2.50;;;;;;;2.83;85.78;95964.23;250475;1148;22953;-79
2020/12/29 06:50:28;;;;;;;5.93;3.00;;;;;;;2.79;85.69;95981.80;250055;1148;23105;-78
2020/12/29 06:55:35;;;;;;;3.57;2.30;;;;;;;2.77;85.33;96005.13;249999;1148;22922;-78
2020/12/29 07:00:37;;;;;;;5.35;2.90;;;;;;;2.70;85.77;96031.20;249883;1148;22948;-77
2020/12/29 07:05:39;;;;;;;5.37;3.07;;;;;;;2.64;85.78;96049.05;250207;1148;22919;-77
2020/12/29 07:10:46;;;;;;;6.43;3.20;;;;;;;2.59;86.32;96077.48;250119;1148;23082;-75
2020/12/29 07:15:49;;;;;;;5.80;3.65;;;;;;;2.54;87.08;96081.80;250422;1148;22927;-75
2020/12/29 07:20:53;;;;;;;8.33;5.17;;;;;;;2.50;86.29;96101.98;250698;1148;22922;-77
2020/12/29 07:25:59;;;;;;;7.20;4.37;;;;;;;2.53;86.73;96116.46;251426;1148;23003;-77
2020/12/29 07:31:01;;;;;;;8.23;5.50;;;;;;;2.58;86.69;96142.78;250739;1148;22922;-74
2020/12/29 07:36:04;;;;;;;8.90;6.27;;;;;;;2.64;86.54;96133.64;250591;1148;23462;-77
2020/12/29 07:41:06;;;;;;;8.67;5.83;;;;;;;2.71;86.70;96163.09;253498;1146;23439;-77
2020/12/29 07:46:09;;;;;;;10.77;5.97;;;;;;;2.76;86.77;96190.47;250486;1148;22935;-76
2020/12/29 07:51:11;;;;;;;11.90;7.27;;;;;;;2.79;86.34;96205.75;250262;1148;22938;-76
2020/12/29 07:56:14;;;;;;;10.20;7.20;;;;;;;2.80;86.43;96205.45;250226;1148;22980;-76
2020/12/29 08:01:16;;;;;;;11.03;7.00;;;;;;;2.90;86.90;96223.70;250213;1148;28317;-74
2020/12/29 08:06:18;;;;;;;11.23;8.27;;;;;;;3.05;86.38;96240.28;250244;1148;23059;-76
2020/12/29 08:11:21;;;;;;;11.83;7.53;;;;;;;3.16;85.72;96248.77;250106;1148;23082;-76
2020/12/29 08:16:23;;;;;;;10.63;7.07;;;;;;;3.35;86.20;96259.16;250258;1148;25973;-76
2020/12/29 08:21:25;;;;;;;9.80;6.40;;;;;;;3.69;84.64;96257.77;250170;1148;23369;-76
2020/12/29 08:26:28;;;;;;;10.63;7.07;;;;;;;3.64;84.44;96265.84;250253;1147;23496;-77
2020/12/29 08:31:31;;;;;;;8.73;6.17;;;;;;;3.54;84.03;96290.70;250127;1147;22974;-76
2020/12/29 08:36:36;;;;;;;11.50;7.33;;;;;;;3.46;83.75;96308.11;250422;1148;22954;-75
2020/12/29 08:41:44;;;;;;;11.50;7.50;;;;;;;3.43;83.87;96320.08;250763;1147;22944;-76
2020/12/29 08:46:46;;;;;;;13.23;6.40;;;;;;;3.45;83.78;96334.89;250263;1148;22922;-75
2020/12/29 08:51:48;;;;;;;11.87;7.87;;;;;;;3.47;83.72;96341.45;250177;1148;22926;-75
2020/12/29 08:56:59;;;;;;;12.27;7.33;;;;;;;3.50;83.68;96369.16;250115;1148;22956;-75
2020/12/29 09:02:01;;;;;;;9.60;6.30;;;;;;;3.97;84.12;96382.84;250334;1148;22928;-75
2020/12/29 09:07:08;;;;;;;10.17;7.07;;;;;;;4.05;81.89;96389.28;250666;1147;22997;-74
2020/12/29 09:12:16;;;;;;;12.20;6.83;;;;;;;3.96;81.93;96389.25;250843;1148;22934;-78
2020/12/29 09:17:23;;;;;;;12.83;7.73;;;;;;;3.93;81.74;96387.98;250462;1149;22933;-75
2020/12/29 09:22:25;;;;;;;9.00;6.10;;;;;;;3.97;81.00;96397.97;250213;1148;27595;-76
2020/12/29 09:27:33;;;;;;;10.67;6.63;;;;;;;4.01;81.37;96417.47;250111;1148;23088;-76
2020/12/29 09:32:35;;;;;;;10.80;5.63;;;;;;;4.06;80.88;96423.42;250535;1149;23029;-76
2020/12/29 09:37:42;;;;;;;8.67;6.03;;;;;;;4.14;80.06;96427.22;250174;1147;23059;-76
2020/12/29 09:42:44;;;;;;;9.87;5.33;;;;;;;4.21;80.57;96445.31;250017;1132;75749;-76
2020/12/29 09:50:10;;;;;;;9.77;6.13;;;;;;;4.33;79.79;96455.37;250157;1132;34880;-75
2020/12/29 09:55:12;;;;;;;9.63;5.50;;;;;;;4.45;79.93;96466.20;249417;1153;26497;-76
2020/12/29 10:00:14;;;;;;;10.35;6.70;;;;;;;4.59;79.47;96479.36;249628;1151;22945;-78
2020/12/29 10:05:17;;;;;;;8.27;4.50;;;;;;;4.70;76.86;96487.81;249600;1151;23198;-76
2020/12/29 10:10:20;;;;;;;7.97;4.40;;;;;;;4.85;78.05;96482.09;250635;1151;23106;-75
2020/12/29 10:15:22;;;;;;;8.40;4.67;;;;;;;4.99;78.18;96492.60;250075;1151;23162;-77
2020/12/29 10:20:24;;;;;;;8.10;4.90;;;;;;;5.11;77.11;96514.03;249340;1151;23006;-76
2020/12/29 10:25:26;;;;;;;6.43;4.03;;;;;;;5.25;76.76;96526.41;249477;1151;22981;-77
2020/12/29 10:30:28;;;;;;;6.63;3.60;;;;;;;5.33;76.08;96511.58;249462;1151;23085;-78
2020/12/29 10:35:30;;;;;;;6.17;3.50;;;;;;;5.39;74.46;96526.30;249745;1150;22930;-76
2020/12/29 10:40:33;;;;;;;6.40;3.60;;;;;;;5.43;74.83;96522.70;250074;1151;23005;-76
2020/12/29 10:45:35;;;;;;;3.85;2.50;;;;;;;5.51;73.37;96534.42;249789;1154;22954;-75
2020/12/29 10:50:37;;;;;;;3.77;2.93;;;;;;;5.54;71.90;96543.64;249429;1151;23004;-78
2020/12/29 10:55:39;;;;;;;5.53;3.00;;;;;;;5.58;74.44;96540.08;249205;1151;23135;-77
2020/12/29 11:00:41;;;;;;;5.30;3.20;;;;;;;5.69;72.55;96539.77;249284;1153;23166;-76
2020/12/29 11:05:44;;;;;;;4.43;2.67;;;;;;;5.78;72.16;96553.86;249280;1153;23347;-77
2020/12/29 11:10:49;;;;;;;6.77;3.03;;;;;;;5.87;72.12;96546.66;249186;1153;23116;-77
2020/12/29 11:15:51;;;;;;;5.47;3.17;;;;;;;6.01;72.73;96551.84;249065;1154;22972;-78
2020/12/29 11:20:55;;;;;;;4.33;2.70;;;;;;;6.12;71.07;96552.33;249240;1153;22980;-80
2020/12/29 11:25:57;;;;;;;4.27;3.03;;;;;;;6.27;72.71;96559.83;249410;1153;23051;-74
2020/12/29 11:30:59;;;;;;;5.00;2.75;;;;;;;6.37;72.01;96561.38;249649;1153;22978;-76
2020/12/29 11:36:02;;;;;;;6.77;3.30;;;;;;;6.46;69.82;96561.36;249265;1154;22918;-75
2020/12/29 11:41:04;;;;;;;5.20;3.00;;;;;;;6.58;72.00;96574.80;249364;1153;22948;-76
2020/12/29 11:46:08;;;;;;;7.40;3.47;;;;;;;6.71;71.46;96567.73;249222;1153;22949;-75
2020/12/29 11:51:10;;;;;;;6.70;2.90;;;;;;;6.80;67.71;96586.33;249067;1151;22963;-77
2020/12/29 11:56:12;;;;;;;3.40;2.00;;;;;;;6.85;67.03;96589.62;249706;1153;26411;-79
2020/12/29 12:01:14;;;;;;;6.17;3.27;;;;;;;6.91;68.33;96598.23;249683;1153;22935;-77
2020/12/29 12:06:17;;;;;;;3.43;1.60;;;;;;;6.98;68.14;96603.84;249503;1153;22907;-76
2020/12/29 12:11:22;;;;;;;5.70;2.80;;;;;;;7.07;68.78;96609.13;249732;1151;22978;-75
2020/12/29 12:16:25;;;;;;;5.80;2.87;;;;;;;7.17;69.13;96616.76;249852;1152;22892;-75
2020/12/29 12:21:28;;;;;;;7.10;3.20;;;;;;;7.24;68.87;96613.61;249623;1151;23008;-76
2020/12/29 12:26:31;;;;;;;5.07;2.50;;;;;;;7.29;67.66;96612.64;250767;1153;22976;-77
2020/12/29 12:31:33;;;;;;;4.27;2.63;;;;;;;7.32;67.71;96604.81;249518;1151;22939;-78
2020/12/29 12:36:35;;;;;;;5.87;2.40;;;;;;;7.33;68.74;96621.56;249420;1151;23692;-77
2020/12/29 12:41:37;;;;;;;4.83;2.67;;;;;;;7.36;68.22;96629.70;249407;1153;23762;-77
2020/12/29 12:46:41;;;;;;;6.03;2.97;;;;;;;7.39;68.38;96644.27;249547;1151;23018;-79
2020/12/29 12:51:47;;;;;;;6.30;2.90;;;;;;;7.44;68.61;96657.39;249609;1153;23450;-77
2020/12/29 12:56:52;;;;;;;8.65;3.80;;;;;;;7.50;68.71;96653.47;252539;1151;23039;-79
2020/12/29 13:01:54;;;;;;;6.03;2.23;;;;;;;7.53;65.68;96657.38;250806;1152;22976;-79
2020/12/29 13:06:57;;;;;;;5.25;2.25;;;;;;;7.52;66.96;96680.56;250046;1153;22967;-78
2020/12/29 13:11:59;;;;;;;6.90;2.40;;;;;;;7.52;66.54;96695.78;256457;1151;23578;-78
2020/12/29 13:17:03;;;;;;;4.50;2.40;;;;;;;7.47;66.26;96703.94;250491;1151;22980;-80
2020/12/29 13:22:05;;;;;;;2.73;1.60;;;;;;;7.42;65.24;96728.88;249570;1153;27214;-78
2020/12/29 13:27:07;;;;;;;3.53;2.57;;;;;;;7.34;65.49;96725.14;249640;1153;22909;-77
2020/12/29 13:32:11;;;;;;;6.80;3.35;;;;;;;7.27;65.78;96740.80;251087;1151;23057;-78
2020/12/29 13:37:13;;;;;;;7.00;3.33;;;;;;;7.18;65.95;96738.16;249476;1151;22987;-77
2020/12/29 13:42:15;;;;;;;3.83;2.10;;;;;;;7.10;65.21;96764.80;252357;1152;23343;-78
2020/12/29 13:47:18;;;;;;;5.00;2.30;;;;;;;6.98;64.98;96762.76;249619;1151;23205;-78
2020/12/29 13:52:21;;;;;;;5.67;2.80;;;;;;;6.84;66.32;96779.69;249506;1153;23365;-78
2020/12/29 13:57:25;;;;;;;5.97;2.90;;;;;;;6.70;65.74;96783.58;249758;1151;23149;-78
2020/12/29 14:02:27;;;;;;;5.67;2.90;;;;;;;6.56;66.32;96781.84;250852;1153;22948;-77
2020/12/29 14:07:29;;;;;;;7.03;3.50;;;;;;;6.43;66.48;96796.82;249516;1153;23001;-77
2020/12/29 14:12:32;;;;;;;7.30;3.87;;;;;;;6.27;65.85;96791.16;249590;1151;22983;-78
2020/12/29 14:17:34;;;;;;;5.67;2.97;;;;;;;6.10;66.36;96788.42;250322;1152;22952;-76
2020/12/29 14:22:36;;;;;;;7.03;3.40;;;;;;;5.91;67.22;96804.59;249145;1151;23372;-77
2020/12/29 14:27:39;;;;;;;10.10;4.33;;;;;;;5.71;67.33;96808.55;249197;1154;22976;-76
2020/12/29 14:32:45;;;;;;;6.43;3.40;;;;;;;5.51;67.57;96821.23;249211;1151;22967;-76
2020/12/29 14:37:47;;;;;;;9.27;4.97;;;;;;;5.36;68.24;96832.23;249188;1152;22955;-77
2020/12/29 14:42:50;;;;;;;6.95;3.85;;;;;;;5.19;68.52;96833.69;248935;1151;22944;-75
2020/12/29 14:47:52;;;;;;;10.45;5.55;;;;;;;5.04;69.15;96847.30;249151;1154;22983;-77
2020/12/29 14:52:54;;;;;;;10.60;5.40;;;;;;;4.85;69.21;96858.05;249399;1150;22983;-76
2020/12/29 14:57:56;;;;;;;9.53;4.50;;;;;;;4.69;69.48;96865.55;249358;1150;22974;-77
2020/12/29 15:03:00;;;;;;;9.07;4.87;;;;;;;4.56;69.59;96857.30;250696;1150;22944;-79
2020/12/29 15:08:02;;;;;;;11.07;6.20;;;;;;;4.47;70.06;96864.36;250187;1151;22964;-77
2020/12/29 15:13:04;;;;;;;13.93;6.43;;;;;;;4.37;70.59;96880.47;250284;1151;23596;-78
2020/12/29 15:18:06;;;;;;;18.80;8.63;;;;;;;4.25;70.91;96894.19;250054;1150;26639;-78
2020/12/29 15:23:08;;;;;;;17.50;8.73;;;;;;;4.13;71.22;96899.17;249695;1150;23372;-78
2020/12/29 15:28:10;;;;;;;18.60;8.03;;;;;;;4.01;71.04;96908.38;249887;1151;23095;-82
2020/12/29 15:33:12;;;;;;;18.33;8.20;;;;;;;3.92;71.49;96918.86;249982;1151;22948;-77
2020/12/29 15:38:14;;;;;;;19.35;8.60;;;;;;;3.96;71.94;96921.73;250203;1150;22974;-78
2020/12/29 15:43:18;;;;;;;23.53;9.97;;;;;;;4.01;72.08;96915.55;250265;1151;22980;-75
2020/12/29 15:48:20;;;;;;;20.50;9.80;;;;;;;3.99;72.20;96922.99;249461;1151;22979;-77
2020/12/29 15:53:23;;;;;;;18.93;9.80;;;;;;;3.93;71.95;96940.83;249492;1151;25867;-77
2020/12/29 15:58:25;;;;;;;20.27;11.87;;;;;;;3.85;71.99;96952.12;249784;1151;22966;-75
2020/12/29 16:03:28;;;;;;;21.17;9.57;;;;;;;3.76;72.78;96970.50;249385;1151;23029;-77
2020/12/29 16:08:31;;;;;;;19.23;10.10;;;;;;;3.72;73.11;96966.85;250001;1151;22983;-76
2020/12/29 16:13:35;;;;;;;22.00;10.60;;;;;;;3.66;73.08;96962.72;249901;1156;24643;-78
2020/12/29 16:18:38;;;;;;;19.90;9.90;;;;;;;3.56;73.19;96961.78;250312;1150;26379;-77
2020/12/29 16:23:40;;;;;;;22.07;9.83;;;;;;;3.43;73.18;96971.23;250196;1155;22984;-77
2020/12/29 16:28:42;;;;;;;23.17;11.47;;;;;;;3.33;73.04;96981.96;249860;1151;22970;-77
2020/12/29 16:33:44;;;;;;;27.07;12.40;;;;;;;3.25;73.51;96985.24;250240;1151;22948;-77
2020/12/29 16:38:46;;;;;;;27.37;12.60;;;;;;;3.21;74.03;96995.59;249621;1151;22951;-78
2020/12/29 16:43:49;;;;;;;29.87;14.03;;;;;;;3.19;74.07;96996.95;249710;1154;24171;-77
2020/12/29 16:48:51;;;;;;;33.13;16.63;;;;;;;3.15;74.26;97011.81;249921;1151;23063;-77
2020/12/29 16:53:54;;;;;;;32.53;14.90;;;;;;;3.05;74.30;97018.81;250035;1151;26625;-78
2020/12/29 16:58:58;;;;;;;37.43;16.83;;;;;;;2.99;74.40;97019.14;249697;1151;23110;-78
2020/12/29 17:04:00;;;;;;;37.83;18.67;;;;;;;2.97;74.62;97029.23;249755;1151;25880;-78
2020/12/29 17:09:04;;;;;;;55.30;25.67;;;;;;;2.97;75.16;97027.36;249793;1151;22921;-77
2020/12/29 17:14:06;;;;;;;45.63;21.03;;;;;;;2.96;75.09;97032.94;249869;1151;22939;-78
2020/12/29 17:19:09;;;;;;;60.90;28.90;;;;;;;2.91;75.08;97041.73;249725;1153;24188;-78
2020/12/29 17:24:11;;;;;;;74.47;31.90;;;;;;;2.88;74.99;97044.91;249954;1158;23079;-76
2020/12/29 17:29:35;;;;;;;86.00;37.70;;;;;;;2.86;74.84;97047.06;250639;1151;22977;-79
2020/12/29 17:34:37;;;;;;;100.37;43.23;;;;;;;2.83;75.09;97058.20;250347;1151;23100;-76
2020/12/29 17:39:40;;;;;;;90.50;40.87;;;;;;;2.79;75.24;97057.19;249943;1151;22949;-78
2020/12/29 17:44:42;;;;;;;100.60;45.45;;;;;;;2.70;75.35;97056.98;250101;1151;22967;-78
2020/12/29 17:49:44;;;;;;;106.00;46.70;;;;;;;2.65;75.09;97062.33;250512;1151;23065;-79
2020/12/29 17:54:47;;;;;;;100.90;45.70;;;;;;;2.62;75.87;97068.19;250303;1156;22918;-75
2020/12/29 17:59:49;;;;;;;106.13;46.60;;;;;;;2.63;76.43;97077.67;250034;1154;23337;-77
2020/12/29 18:04:51;;;;;;;98.67;45.13;;;;;;;2.59;76.41;97087.22;250506;1156;22939;-77
2020/12/29 18:09:53;;;;;;;91.47;41.33;;;;;;;2.56;76.08;97107.06;250126;1151;23112;-77
2020/12/29 18:14:55;;;;;;;87.80;38.00;;;;;;;2.53;76.42;97118.20;249093;1158;22952;-78
2020/12/29 18:19:58;;;;;;;84.40;37.80;;;;;;;2.52;76.53;97121.93;249259;1151;22970;-78
2020/12/29 18:25:00;;;;;;;80.03;36.77;;;;;;;2.53;76.57;97144.63;249582;1155;22945;-78
2020/12/29 18:30:05;;;;;;;67.53;31.93;;;;;;;2.53;77.29;97136.70;249540;1151;22945;-78
2020/12/29 18:35:10;;;;;;;76.23;34.67;;;;;;;2.55;77.33;97148.58;249860;1150;23112;-78
2020/12/29 18:40:12;;;;;;;72.33;33.47;;;;;;;2.54;76.85;97156.79;248979;1151;23113;-76
2020/12/29 18:45:14;;;;;;;75.50;33.55;;;;;;;2.58;77.28;97162.33;249133;1151;22956;-76
2020/12/29 18:50:17;;;;;;;69.70;31.77;;;;;;;2.62;77.41;97166.00;248878;1151;22956;-78
2020/12/29 18:55:19;;;;;;;67.83;31.87;;;;;;;2.67;77.42;97169.40;249560;1150;23047;-77
2020/12/29 19:00:21;;;;;;;62.50;27.77;;;;;;;2.68;77.75;97180.75;250419;1151;23025;-77
2020/12/29 19:05:23;;;;;;;66.83;28.73;;;;;;;2.69;77.74;97179.70;249929;1156;22975;-77
2020/12/29 19:10:26;;;;;;;61.57;29.47;;;;;;;2.72;77.66;97200.30;249492;1154;23029;-78
2020/12/29 19:15:28;;;;;;;65.30;29.25;;;;;;;2.72;77.81;97190.50;249459;1151;28850;-77
2020/12/29 19:20:30;;;;;;;65.15;29.70;;;;;;;2.72;78.04;97181.78;249557;1151;23417;-77
2020/12/29 19:25:33;;;;;;;72.47;30.27;;;;;;;2.71;77.82;97185.48;249491;1151;22966;-78
2020/12/29 19:30:34;;;;;;;74.23;31.40;;;;;;;2.70;77.66;97191.83;249769;1151;22968;-78
2020/12/29 19:35:37;;;;;;;86.50;38.40;;;;;;;2.74;78.20;97200.80;249467;1151;22995;-77
2020/12/29 19:40:39;;;;;;;118.20;52.10;;;;;;;2.81;78.51;97203.94;249459;1151;26156;-78
2020/12/29 19:45:41;;;;;;;130.43;59.23;;;;;;;2.86;78.35;97214.46;249593;1151;23003;-78
2020/12/29 19:50:44;;;;;;;115.85;51.10;;;;;;;2.87;78.29;97215.27;249428;1151;22951;-78
2020/12/29 19:55:46;;;;;;;89.65;38.75;;;;;;;2.86;77.90;97219.75;249510;1151;22976;-77
2020/12/29 20:00:48;;;;;;;74.17;33.33;;;;;;;2.89;78.33;97223.70;249475;1151;22942;-77
2020/12/29 20:05:51;;;;;;;86.17;38.07;;;;;;;2.95;78.83;97224.45;249767;1156;22954;-79
2020/12/29 20:10:53;;;;;;;69.50;31.70;;;;;;;2.97;78.21;97227.63;249683;1151;23026;-80
2020/12/29 20:15:56;;;;;;;67.87;28.83;;;;;;;2.93;78.02;97232.67;249498;1151;22936;-77
2020/12/29 20:20:58;;;;;;;63.13;28.33;;;;;;;2.86;78.00;97227.69;249627;1153;22936;-78
2020/12/29 20:26:00;;;;;;;47.87;22.70;;;;;;;2.81;77.61;97237.52;250042;1151;23143;-76
2020/12/29 20:31:02;;;;;;;52.95;23.50;;;;;;;2.78;77.88;97238.84;249272;1151;22952;-78
2020/12/29 20:36:05;;;;;;;68.27;30.37;;;;;;;2.76;77.73;97243.64;249607;1151;22971;-77
2020/12/29 20:41:11;;;;;;;111.50;44.20;;;;;;;2.70;77.61;97244.72;249738;1151;23147;-78
2020/12/29 20:46:13;;;;;;;96.20;41.90;;;;;;;2.66;77.76;97241.84;249827;1151;23010;-78
2020/12/29 20:51:31;;;;;;;91.27;38.37;;;;;;;2.69;78.61;97240.52;249939;1151;22955;-78
2020/12/29 20:56:33;;;;;;;77.60;32.90;;;;;;;2.74;79.08;97240.46;249684;1150;22952;-78
2020/12/29 21:01:35;;;;;;;78.90;34.50;;;;;;;2.73;78.80;97250.26;250162;1151;22987;-77
2020/12/29 21:06:38;;;;;;;80.00;35.10;;;;;;;2.70;78.53;97250.00;249908;1156;22987;-78
2020/12/29 21:11:40;;;;;;;75.10;34.03;;;;;;;2.70;79.16;97260.58;249720;1151;23202;-79
2020/12/29 21:16:43;;;;;;;77.75;34.65;;;;;;;2.72;79.51;97274.33;250114;1156;23036;-76
2020/12/29 21:21:45;;;;;;;83.60;36.23;;;;;;;2.71;78.92;97283.33;249923;1150;22991;-78
2020/12/29 21:26:47;;;;;;;94.20;40.27;;;;;;;2.61;78.85;97270.95;249787;1151;22950;-80
2020/12/29 21:31:49;;;;;;;102.17;42.53;;;;;;;2.53;78.95;97277.62;249386;1151;22952;-78
2020/12/29 21:36:53;;;;;;;107.95;47.75;;;;;;;2.52;79.01;97277.89;249414;1156;22935;-79
2020/12/29 21:41:55;;;;;;;130.80;53.00;;;;;;;2.53;79.41;97277.62;249662;1151;23221;-79
2020/12/29 21:46:58;;;;;;;132.93;55.33;;;;;;;2.53;79.89;97282.09;249902;1150;22950;-78
2020/12/29 21:52:01;;;;;;;131.33;55.70;;;;;;;2.50;79.78;97280.78;249624;1151;22952;-79
2020/12/29 21:57:03;;;;;;;130.90;51.77;;;;;;;2.45;79.63;97274.73;249156;1151;23459;-78
2020/12/29 22:02:07;;;;;;;121.07;48.70;;;;;;;2.42;79.53;97289.30;249320;1151;22977;-78
2020/12/29 22:07:10;;;;;;;201.67;83.33;;;;;;;2.39;79.63;97305.68;249184;1158;22973;-78
2020/12/29 22:12:12;;;;;;;221.80;88.93;;;;;;;2.26;78.79;97312.34;249501;1151;27895;-78
2020/12/29 22:17:15;;;;;;;194.00;76.13;;;;;;;2.13;78.75;97300.50;249492;1155;22983;-78
2020/12/29 22:22:17;;;;;;;171.53;63.37;;;;;;;2.00;78.92;97311.62;249209;1151;23045;-78
2020/12/29 22:27:20;;;;;;;149.40;57.47;;;;;;;1.90;78.77;97312.44;249314;1151;22952;-76
2020/12/29 22:32:22;;;;;;;165.83;65.83;;;;;;;1.84;79.64;97313.52;249285;1150;22924;-78
2020/12/29 22:37:24;;;;;;;178.45;70.70;;;;;;;1.87;79.92;97307.69;249495;1156;23189;-78
2020/12/29 22:42:33;;;;;;;177.63;65.47;;;;;;;1.96;80.56;97310.57;249489;1151;22959;-78
2020/12/29 22:47:36;;;;;;;154.73;60.20;;;;;;;2.10;80.27;97311.61;249516;1150;22948;-77
2020/12/29 22:52:38;;;;;;;173.10;66.65;;;;;;;2.27;80.37;97302.55;249471;1151;23003;-79
2020/12/29 22:57:40;;;;;;;138.17;55.70;;;;;;;2.38;80.45;97291.69;249540;1151;22988;-77
2020/12/29 23:02:42;;;;;;;140.03;53.67;;;;;;;2.52;80.07;97286.60;249537;1151;22929;-76
2020/12/29 23:07:44;;;;;;;120.43;46.40;;;;;;;2.67;80.32;97292.86;249800;1156;22954;-78
2020/12/29 23:12:48;;;;;;;85.93;37.10;;;;;;;2.86;80.69;97283.23;249521;1151;22960;-78
2020/12/29 23:17:50;;;;;;;97.97;40.77;;;;;;;3.07;80.59;97293.69;249806;1151;22960;-77
2020/12/29 23:22:52;;;;;;;86.10;35.43;;;;;;;3.21;80.56;97286.69;249508;1151;23096;-77
2020/12/29 23:27:54;;;;;;;80.45;32.95;;;;;;;3.36;80.32;97288.44;249826;1151;22935;-78
2020/12/29 23:32:56;;;;;;;82.03;35.57;;;;;;;3.57;80.50;97290.91;249495;1151;22942;-77